In Rescue
 
Open Full Screen Window  High Contrast Mode
Wind Gusting 00 knots
07
May 20, 2019 12:45 PM CDT
Weather Information
Wind Direction
  050 °
Wind Speed
  07 kt (8 mph)
Wind Gust
  00 kt (0 mph)
Variable Wind
020°
080°
Altimeter
30.11 in
Visibility
10 SM
Temperature
18° C
64° F
Dewpoint
-01° C
30° F
Humidity
28%
1hr Rain Fall
00.00 in.
24hr Rain Fall
00.00 in.
Sky Condition
Clear
VFR

METAR KCKN 201745Z AUTO 05007KT 020V080 10SM CLR 18/M01 A3011 RMK AO2

FAA Disclaimer: The data displayed is for advisory purposes only and is not to be used for flight planning or operations.